sensor_id;sensor_type;location;lat;lon;timestamp;P1;durP1;ratioP1;P2;durP2;ratioP2
62798;SDS011;48842;51.046;13.796;2022-11-15T00:00:41;55.30;;;38.83;;
62798;SDS011;48842;51.046;13.796;2022-11-15T00:03:07;48.17;;;38.13;;
62798;SDS011;48842;51.046;13.796;2022-11-15T00:05:34;49.93;;;38.37;;
62798;SDS011;48842;51.046;13.796;2022-11-15T00:08:00;47.97;;;38.40;;
62798;SDS011;48842;51.046;13.796;2022-11-15T00:10:26;54.37;;;39.40;;
62798;SDS011;48842;51.046;13.796;2022-11-15T00:12:51;50.00;;;38.40;;
62798;SDS011;48842;51.046;13.796;2022-11-15T00:15:16;54.40;;;38.00;;
62798;SDS011;48842;51.046;13.796;2022-11-15T00:17:42;48.67;;;37.00;;
62798;SDS011;48842;51.046;13.796;2022-11-15T00:20:07;53.30;;;39.77;;
62798;SDS011;48842;51.046;13.796;2022-11-15T00:22:33;51.80;;;37.50;;
62798;SDS011;48842;51.046;13.796;2022-11-15T00:24:58;54.60;;;38.77;;
62798;SDS011;48842;51.046;13.796;2022-11-15T00:27:23;52.37;;;39.97;;
62798;SDS011;48842;51.046;13.796;2022-11-15T00:29:49;60.70;;;42.20;;
62798;SDS011;48842;51.046;13.796;2022-11-15T00:32:14;55.67;;;41.00;;
62798;SDS011;48842;51.046;13.796;2022-11-15T00:34:39;60.30;;;42.13;;
62798;SDS011;48842;51.046;13.796;2022-11-15T00:37:06;50.90;;;39.67;;
62798;SDS011;48842;51.046;13.796;2022-11-15T00:39:31;52.33;;;40.90;;
62798;SDS011;48842;51.046;13.796;2022-11-15T00:41:57;57.03;;;42.50;;
62798;SDS011;48842;51.046;13.796;2022-11-15T00:44:22;56.40;;;42.07;;
62798;SDS011;48842;51.046;13.796;2022-11-15T00:46:47;53.70;;;40.80;;
62798;SDS011;48842;51.046;13.796;2022-11-15T00:49:13;56.67;;;41.13;;
62798;SDS011;48842;51.046;13.796;2022-11-15T00:51:38;60.33;;;42.90;;
62798;SDS011;48842;51.046;13.796;2022-11-15T00:54:03;55.60;;;42.20;;
62798;SDS011;48842;51.046;13.796;2022-11-15T00:56:28;59.43;;;43.80;;
62798;SDS011;48842;51.046;13.796;2022-11-15T00:58:54;59.00;;;42.90;;
62798;SDS011;48842;51.046;13.796;2022-11-15T01:01:19;58.37;;;43.37;;
62798;SDS011;48842;51.046;13.796;2022-11-15T01:03:45;56.20;;;42.50;;
62798;SDS011;48842;51.046;13.796;2022-11-15T01:06:10;57.77;;;43.10;;
62798;SDS011;48842;51.046;13.796;2022-11-15T01:08:36;59.97;;;42.33;;
62798;SDS011;48842;51.046;13.796;2022-11-15T01:11:04;67.77;;;41.73;;
62798;SDS011;48842;51.046;13.796;2022-11-15T01:13:32;55.47;;;42.33;;
62798;SDS011;48842;51.046;13.796;2022-11-15T01:16:05;59.30;;;44.17;;
62798;SDS011;48842;51.046;13.796;2022-11-15T01:18:34;59.47;;;44.70;;
62798;SDS011;48842;51.046;13.796;2022-11-15T01:21:03;54.33;;;39.80;;
62798;SDS011;48842;51.046;13.796;2022-11-15T01:23:30;57.80;;;42.60;;
62798;SDS011;48842;51.046;13.796;2022-11-15T01:25:58;58.00;;;41.30;;
62798;SDS011;48842;51.046;13.796;2022-11-15T01:28:24;58.63;;;42.80;;
62798;SDS011;48842;51.046;13.796;2022-11-15T01:30:50;63.30;;;43.40;;
62798;SDS011;48842;51.046;13.796;2022-11-15T01:33:15;54.57;;;40.40;;
62798;SDS011;48842;51.046;13.796;2022-11-15T01:35:40;59.20;;;42.70;;
62798;SDS011;48842;51.046;13.796;2022-11-15T01:38:05;56.27;;;40.73;;
62798;SDS011;48842;51.046;13.796;2022-11-15T01:40:31;60.70;;;43.97;;
62798;SDS011;48842;51.046;13.796;2022-11-15T01:42:56;60.93;;;42.87;;
62798;SDS011;48842;51.046;13.796;2022-11-15T01:45:21;58.43;;;41.87;;
62798;SDS011;48842;51.046;13.796;2022-11-15T01:47:48;56.60;;;39.70;;
62798;SDS011;48842;51.046;13.796;2022-11-15T01:50:19;58.80;;;41.13;;
62798;SDS011;48842;51.046;13.796;2022-11-15T01:52:55;59.53;;;41.77;;
62798;SDS011;48842;51.046;13.796;2022-11-15T01:55:22;61.20;;;44.60;;
62798;SDS011;48842;51.046;13.796;2022-11-15T01:57:51;61.73;;;42.97;;
62798;SDS011;48842;51.046;13.796;2022-11-15T02:00:19;62.03;;;42.90;;
62798;SDS011;48842;51.046;13.796;2022-11-15T02:02:45;62.40;;;42.57;;
62798;SDS011;48842;51.046;13.796;2022-11-15T02:05:10;58.27;;;42.03;;
62798;SDS011;48842;51.046;13.796;2022-11-15T02:07:36;60.40;;;41.83;;
62798;SDS011;48842;51.046;13.796;2022-11-15T02:10:02;58.97;;;41.57;;
62798;SDS011;48842;51.046;13.796;2022-11-15T02:12:32;57.27;;;42.13;;
62798;SDS011;48842;51.046;13.796;2022-11-15T02:14:58;57.30;;;39.03;;
62798;SDS011;48842;51.046;13.796;2022-11-15T02:31:41;59.90;;;39.67;;
62798;SDS011;48842;51.046;13.796;2022-11-15T02:41:57;56.73;;;40.50;;
62798;SDS011;48842;51.046;13.796;2022-11-15T02:44:30;58.13;;;39.03;;
62798;SDS011;48842;51.046;13.796;2022-11-15T02:47:03;62.83;;;41.60;;
62798;SDS011;48842;51.046;13.796;2022-11-15T02:49:50;53.57;;;38.00;;
62798;SDS011;48842;51.046;13.796;2022-11-15T02:52:20;55.13;;;38.63;;
62798;SDS011;48842;51.046;13.796;2022-11-15T02:54:53;54.57;;;38.50;;
62798;SDS011;48842;51.046;13.796;2022-11-15T02:57:29;53.83;;;37.93;;
62798;SDS011;48842;51.046;13.796;2022-11-15T03:00:18;53.67;;;37.90;;
62798;SDS011;48842;51.046;13.796;2022-11-15T03:03:05;51.73;;;36.10;;
62798;SDS011;48842;51.046;13.796;2022-11-15T03:08:37;58.73;;;36.03;;
62798;SDS011;48842;51.046;13.796;2022-11-15T03:11:18;48.03;;;34.53;;
62798;SDS011;48842;51.046;13.796;2022-11-15T03:13:48;51.93;;;36.27;;
62798;SDS011;48842;51.046;13.796;2022-11-15T03:16:27;55.53;;;35.10;;
62798;SDS011;48842;51.046;13.796;2022-11-15T03:19:22;52.83;;;36.13;;
62798;SDS011;48842;51.046;13.796;2022-11-15T03:21:59;53.10;;;34.83;;
62798;SDS011;48842;51.046;13.796;2022-11-15T03:24:28;44.60;;;32.77;;
62798;SDS011;48842;51.046;13.796;2022-11-15T03:26:56;47.47;;;34.60;;
62798;SDS011;48842;51.046;13.796;2022-11-15T03:29:27;50.77;;;34.47;;
62798;SDS011;48842;51.046;13.796;2022-11-15T03:31:58;54.07;;;35.90;;
62798;SDS011;48842;51.046;13.796;2022-11-15T03:37:32;44.50;;;31.17;;
62798;SDS011;48842;51.046;13.796;2022-11-15T03:40:02;47.83;;;32.47;;
62798;SDS011;48842;51.046;13.796;2022-11-15T03:42:38;45.60;;;31.70;;
62798;SDS011;48842;51.046;13.796;2022-11-15T03:45:19;47.73;;;32.43;;
62798;SDS011;48842;51.046;13.796;2022-11-15T03:47:52;48.87;;;33.30;;
62798;SDS011;48842;51.046;13.796;2022-11-15T03:50:23;42.43;;;30.47;;
62798;SDS011;48842;51.046;13.796;2022-11-15T03:52:49;47.07;;;33.27;;
62798;SDS011;48842;51.046;13.796;2022-11-15T03:55:17;47.00;;;32.43;;
62798;SDS011;48842;51.046;13.796;2022-11-15T03:57:43;47.17;;;32.47;;
62798;SDS011;48842;51.046;13.796;2022-11-15T04:00:09;46.37;;;31.53;;
62798;SDS011;48842;51.046;13.796;2022-11-15T04:02:35;43.30;;;31.33;;
62798;SDS011;48842;51.046;13.796;2022-11-15T04:05:00;41.80;;;31.97;;
62798;SDS011;48842;51.046;13.796;2022-11-15T04:07:25;52.13;;;32.20;;
62798;SDS011;48842;51.046;13.796;2022-11-15T04:09:51;47.60;;;33.80;;
62798;SDS011;48842;51.046;13.796;2022-11-15T04:12:29;41.47;;;30.67;;
62798;SDS011;48842;51.046;13.796;2022-11-15T04:17:42;45.00;;;30.63;;
62798;SDS011;48842;51.046;13.796;2022-11-15T04:20:16;40.97;;;30.17;;
62798;SDS011;48842;51.046;13.796;2022-11-15T04:23:03;42.83;;;29.90;;
62798;SDS011;48842;51.046;13.796;2022-11-15T04:25:49;37.10;;;27.17;;
62798;SDS011;48842;51.046;13.796;2022-11-15T04:28:16;42.33;;;29.70;;
62798;SDS011;48842;51.046;13.796;2022-11-15T04:30:42;42.07;;;30.53;;
62798;SDS011;48842;51.046;13.796;2022-11-15T04:33:07;41.73;;;29.50;;
62798;SDS011;48842;51.046;13.796;2022-11-15T04:35:33;40.20;;;28.90;;
62798;SDS011;48842;51.046;13.796;2022-11-15T04:37:58;41.40;;;28.40;;
62798;SDS011;48842;51.046;13.796;2022-11-15T04:40:24;39.77;;;28.30;;
62798;SDS011;48842;51.046;13.796;2022-11-15T04:42:49;40.53;;;28.07;;
62798;SDS011;48842;51.046;13.796;2022-11-15T04:45:15;40.97;;;28.97;;
62798;SDS011;48842;51.046;13.796;2022-11-15T04:47:42;42.03;;;30.47;;
62798;SDS011;48842;51.046;13.796;2022-11-15T04:50:09;46.90;;;29.33;;
62798;SDS011;48842;51.046;13.796;2022-11-15T04:52:37;42.77;;;30.20;;
62798;SDS011;48842;51.046;13.796;2022-11-15T04:55:02;39.70;;;29.17;;
62798;SDS011;48842;51.046;13.796;2022-11-15T04:57:28;39.70;;;28.40;;
62798;SDS011;48842;51.046;13.796;2022-11-15T04:59:53;39.07;;;28.77;;
62798;SDS011;48842;51.046;13.796;2022-11-15T05:02:18;46.57;;;29.80;;
62798;SDS011;48842;51.046;13.796;2022-11-15T05:04:44;41.30;;;27.57;;
62798;SDS011;48842;51.046;13.796;2022-11-15T05:07:09;44.97;;;30.27;;
62798;SDS011;48842;51.046;13.796;2022-11-15T05:09:34;40.60;;;28.60;;
62798;SDS011;48842;51.046;13.796;2022-11-15T05:11:59;42.10;;;28.97;;
62798;SDS011;48842;51.046;13.796;2022-11-15T05:14:25;42.83;;;30.07;;
62798;SDS011;48842;51.046;13.796;2022-11-15T05:16:50;35.97;;;28.37;;
62798;SDS011;48842;51.046;13.796;2022-11-15T05:19:15;41.93;;;29.23;;
62798;SDS011;48842;51.046;13.796;2022-11-15T05:21:41;42.30;;;29.50;;
62798;SDS011;48842;51.046;13.796;2022-11-15T05:24:06;40.90;;;28.70;;
62798;SDS011;48842;51.046;13.796;2022-11-15T05:26:31;39.97;;;29.30;;
62798;SDS011;48842;51.046;13.796;2022-11-15T05:28:57;40.50;;;29.73;;
62798;SDS011;48842;51.046;13.796;2022-11-15T05:31:24;40.20;;;28.80;;
62798;SDS011;48842;51.046;13.796;2022-11-15T05:33:51;42.47;;;29.93;;
62798;SDS011;48842;51.046;13.796;2022-11-15T05:36:22;45.60;;;29.23;;
62798;SDS011;48842;51.046;13.796;2022-11-15T05:38:54;50.60;;;37.60;;
62798;SDS011;48842;51.046;13.796;2022-11-15T05:41:20;46.50;;;30.53;;
62798;SDS011;48842;51.046;13.796;2022-11-15T05:43:51;46.90;;;31.97;;
62798;SDS011;48842;51.046;13.796;2022-11-15T05:46:18;44.17;;;30.40;;
62798;SDS011;48842;51.046;13.796;2022-11-15T05:48:45;43.30;;;27.00;;
62798;SDS011;48842;51.046;13.796;2022-11-15T05:51:13;43.60;;;30.73;;
62798;SDS011;48842;51.046;13.796;2022-11-15T05:53:42;41.13;;;28.97;;
62798;SDS011;48842;51.046;13.796;2022-11-15T05:56:09;40.90;;;28.70;;
62798;SDS011;48842;51.046;13.796;2022-11-15T05:58:35;35.70;;;27.10;;
62798;SDS011;48842;51.046;13.796;2022-11-15T06:01:02;41.90;;;29.70;;
62798;SDS011;48842;51.046;13.796;2022-11-15T06:03:27;43.10;;;30.33;;
62798;SDS011;48842;51.046;13.796;2022-11-15T06:05:52;40.07;;;27.43;;
62798;SDS011;48842;51.046;13.796;2022-11-15T06:08:18;38.60;;;28.57;;
62798;SDS011;48842;51.046;13.796;2022-11-15T06:10:43;39.23;;;27.57;;
62798;SDS011;48842;51.046;13.796;2022-11-15T06:13:08;41.17;;;29.20;;
62798;SDS011;48842;51.046;13.796;2022-11-15T06:15:34;38.70;;;27.80;;
62798;SDS011;48842;51.046;13.796;2022-11-15T06:17:59;43.23;;;28.70;;
62798;SDS011;48842;51.046;13.796;2022-11-15T06:20:25;42.33;;;29.90;;
62798;SDS011;48842;51.046;13.796;2022-11-15T06:22:55;39.97;;;28.37;;
62798;SDS011;48842;51.046;13.796;2022-11-15T06:25:21;39.57;;;27.93;;
62798;SDS011;48842;51.046;13.796;2022-11-15T06:27:50;39.70;;;28.30;;
62798;SDS011;48842;51.046;13.796;2022-11-15T06:30:17;38.43;;;27.80;;
62798;SDS011;48842;51.046;13.796;2022-11-15T06:32:42;41.07;;;30.00;;
62798;SDS011;48842;51.046;13.796;2022-11-15T06:35:07;41.07;;;28.30;;
62798;SDS011;48842;51.046;13.796;2022-11-15T06:37:33;43.47;;;28.40;;
62798;SDS011;48842;51.046;13.796;2022-11-15T06:39:58;46.23;;;27.10;;
62798;SDS011;48842;51.046;13.796;2022-11-15T06:42:23;43.03;;;28.50;;
62798;SDS011;48842;51.046;13.796;2022-11-15T06:44:49;46.83;;;28.00;;
62798;SDS011;48842;51.046;13.796;2022-11-15T06:47:14;40.67;;;28.67;;
62798;SDS011;48842;51.046;13.796;2022-11-15T06:49:39;37.83;;;25.37;;
62798;SDS011;48842;51.046;13.796;2022-11-15T06:52:04;40.57;;;27.30;;
62798;SDS011;48842;51.046;13.796;2022-11-15T06:54:30;39.10;;;26.77;;
62798;SDS011;48842;51.046;13.796;2022-11-15T06:56:55;37.70;;;27.03;;
62798;SDS011;48842;51.046;13.796;2022-11-15T06:59:20;38.50;;;26.17;;
62798;SDS011;48842;51.046;13.796;2022-11-15T07:01:45;40.60;;;26.87;;
62798;SDS011;48842;51.046;13.796;2022-11-15T07:04:11;37.60;;;26.53;;
62798;SDS011;48842;51.046;13.796;2022-11-15T07:06:36;36.87;;;25.90;;
62798;SDS011;48842;51.046;13.796;2022-11-15T07:09:02;36.30;;;25.53;;
62798;SDS011;48842;51.046;13.796;2022-11-15T07:11:28;37.60;;;25.97;;
62798;SDS011;48842;51.046;13.796;2022-11-15T07:13:53;35.10;;;25.90;;
62798;SDS011;48842;51.046;13.796;2022-11-15T07:16:18;36.43;;;25.77;;
62798;SDS011;48842;51.046;13.796;2022-11-15T07:18:44;38.37;;;25.67;;
62798;SDS011;48842;51.046;13.796;2022-11-15T07:21:09;38.50;;;27.13;;
62798;SDS011;48842;51.046;13.796;2022-11-15T07:23:36;40.33;;;28.10;;
62798;SDS011;48842;51.046;13.796;2022-11-15T07:26:02;41.00;;;27.30;;
62798;SDS011;48842;51.046;13.796;2022-11-15T07:28:28;35.80;;;26.27;;
62798;SDS011;48842;51.046;13.796;2022-11-15T07:30:53;43.43;;;29.30;;
62798;SDS011;48842;51.046;13.796;2022-11-15T07:33:19;37.70;;;27.03;;
62798;SDS011;48842;51.046;13.796;2022-11-15T07:35:44;37.47;;;26.13;;
62798;SDS011;48842;51.046;13.796;2022-11-15T07:38:13;41.67;;;28.10;;
62798;SDS011;48842;51.046;13.796;2022-11-15T07:40:39;40.27;;;27.57;;
62798;SDS011;48842;51.046;13.796;2022-11-15T07:43:05;40.53;;;28.30;;
62798;SDS011;48842;51.046;13.796;2022-11-15T07:45:32;37.77;;;26.67;;
62798;SDS011;48842;51.046;13.796;2022-11-15T07:48:00;39.73;;;26.40;;
62798;SDS011;48842;51.046;13.796;2022-11-15T07:50:26;35.97;;;25.80;;
62798;SDS011;48842;51.046;13.796;2022-11-15T07:52:56;41.70;;;26.10;;
62798;SDS011;48842;51.046;13.796;2022-11-15T07:55:23;39.43;;;26.50;;
62798;SDS011;48842;51.046;13.796;2022-11-15T07:57:51;35.87;;;24.73;;
62798;SDS011;48842;51.046;13.796;2022-11-15T08:00:17;40.73;;;26.90;;
62798;SDS011;48842;51.046;13.796;2022-11-15T08:02:42;34.67;;;25.83;;
62798;SDS011;48842;51.046;13.796;2022-11-15T08:05:08;38.07;;;26.20;;
62798;SDS011;48842;51.046;13.796;2022-11-15T08:07:33;35.60;;;25.27;;
62798;SDS011;48842;51.046;13.796;2022-11-15T08:09:58;35.90;;;25.27;;
62798;SDS011;48842;51.046;13.796;2022-11-15T08:12:25;36.07;;;24.73;;
62798;SDS011;48842;51.046;13.796;2022-11-15T08:14:51;31.10;;;22.90;;
62798;SDS011;48842;51.046;13.796;2022-11-15T08:17:16;35.77;;;25.57;;
62798;SDS011;48842;51.046;13.796;2022-11-15T08:19:41;36.13;;;23.50;;
62798;SDS011;48842;51.046;13.796;2022-11-15T08:22:07;33.27;;;24.07;;
62798;SDS011;48842;51.046;13.796;2022-11-15T08:24:32;37.00;;;24.23;;
62798;SDS011;48842;51.046;13.796;2022-11-15T08:26:57;34.60;;;25.00;;
62798;SDS011;48842;51.046;13.796;2022-11-15T08:29:22;37.10;;;23.80;;
62798;SDS011;48842;51.046;13.796;2022-11-15T08:31:48;32.60;;;23.57;;
62798;SDS011;48842;51.046;13.796;2022-11-15T08:34:13;33.90;;;24.30;;
62798;SDS011;48842;51.046;13.796;2022-11-15T08:36:39;37.97;;;25.30;;
62798;SDS011;48842;51.046;13.796;2022-11-15T08:39:04;33.70;;;22.27;;
62798;SDS011;48842;51.046;13.796;2022-11-15T08:41:30;33.10;;;22.63;;
62798;SDS011;48842;51.046;13.796;2022-11-15T08:43:57;34.70;;;24.67;;
62798;SDS011;48842;51.046;13.796;2022-11-15T08:46:23;29.60;;;22.10;;
62798;SDS011;48842;51.046;13.796;2022-11-15T08:48:48;40.13;;;24.00;;
62798;SDS011;48842;51.046;13.796;2022-11-15T08:51:14;34.00;;;24.30;;
62798;SDS011;48842;51.046;13.796;2022-11-15T08:53:39;39.03;;;23.90;;
62798;SDS011;48842;51.046;13.796;2022-11-15T08:56:08;32.33;;;23.37;;
62798;SDS011;48842;51.046;13.796;2022-11-15T08:58:35;35.73;;;24.90;;
62798;SDS011;48842;51.046;13.796;2022-11-15T09:01:01;33.93;;;24.50;;
62798;SDS011;48842;51.046;13.796;2022-11-15T09:03:26;33.40;;;24.40;;
62798;SDS011;48842;51.046;13.796;2022-11-15T09:05:55;35.53;;;24.60;;
62798;SDS011;48842;51.046;13.796;2022-11-15T09:08:21;32.13;;;22.37;;
62798;SDS011;48842;51.046;13.796;2022-11-15T09:10:47;34.50;;;24.47;;
62798;SDS011;48842;51.046;13.796;2022-11-15T09:13:12;32.67;;;24.10;;
62798;SDS011;48842;51.046;13.796;2022-11-15T09:15:38;32.20;;;25.27;;
62798;SDS011;48842;51.046;13.796;2022-11-15T09:18:04;30.80;;;22.20;;
62798;SDS011;48842;51.046;13.796;2022-11-15T09:20:29;30.60;;;23.63;;
62798;SDS011;48842;51.046;13.796;2022-11-15T09:22:54;31.60;;;22.93;;
62798;SDS011;48842;51.046;13.796;2022-11-15T09:25:20;36.80;;;24.47;;
62798;SDS011;48842;51.046;13.796;2022-11-15T09:27:45;31.40;;;23.47;;
62798;SDS011;48842;51.046;13.796;2022-11-15T09:30:10;34.10;;;23.00;;
62798;SDS011;48842;51.046;13.796;2022-11-15T09:32:36;33.37;;;23.80;;
62798;SDS011;48842;51.046;13.796;2022-11-15T09:35:01;34.20;;;24.13;;
62798;SDS011;48842;51.046;13.796;2022-11-15T09:37:26;31.90;;;22.97;;
62798;SDS011;48842;51.046;13.796;2022-11-15T09:39:52;30.90;;;24.10;;
62798;SDS011;48842;51.046;13.796;2022-11-15T09:42:21;32.73;;;23.60;;
62798;SDS011;48842;51.046;13.796;2022-11-15T09:45:24;29.87;;;21.87;;
62798;SDS011;48842;51.046;13.796;2022-11-15T09:48:00;32.03;;;22.20;;
62798;SDS011;48842;51.046;13.796;2022-11-15T09:50:41;31.87;;;22.70;;
62798;SDS011;48842;51.046;13.796;2022-11-15T09:53:12;31.50;;;22.53;;
62798;SDS011;48842;51.046;13.796;2022-11-15T09:55:55;29.53;;;21.00;;
62798;SDS011;48842;51.046;13.796;2022-11-15T09:58:36;29.00;;;22.13;;
62798;SDS011;48842;51.046;13.796;2022-11-15T10:01:06;30.27;;;20.90;;
62798;SDS011;48842;51.046;13.796;2022-11-15T10:03:39;31.87;;;21.93;;
62798;SDS011;48842;51.046;13.796;2022-11-15T10:06:13;28.77;;;20.77;;
62798;SDS011;48842;51.046;13.796;2022-11-15T10:08:53;25.80;;;20.03;;
62798;SDS011;48842;51.046;13.796;2022-11-15T10:11:26;31.03;;;21.47;;
62798;SDS011;48842;51.046;13.796;2022-11-15T10:13:55;30.00;;;20.67;;
62798;SDS011;48842;51.046;13.796;2022-11-15T10:16:33;27.97;;;21.20;;
62798;SDS011;48842;51.046;13.796;2022-11-15T10:19:33;27.93;;;20.37;;
62798;SDS011;48842;51.046;13.796;2022-11-15T10:22:13;25.63;;;19.47;;
62798;SDS011;48842;51.046;13.796;2022-11-15T10:27:33;27.03;;;20.63;;
62798;SDS011;48842;51.046;13.796;2022-11-15T10:29:59;28.50;;;19.67;;
62798;SDS011;48842;51.046;13.796;2022-11-15T10:32:24;29.07;;;21.03;;
62798;SDS011;48842;51.046;13.796;2022-11-15T10:34:50;36.20;;;22.13;;
62798;SDS011;48842;51.046;13.796;2022-11-15T10:37:26;28.60;;;19.90;;
62798;SDS011;48842;51.046;13.796;2022-11-15T10:40:06;26.53;;;18.90;;
62798;SDS011;48842;51.046;13.796;2022-11-15T10:42:43;31.27;;;20.97;;
62798;SDS011;48842;51.046;13.796;2022-11-15T10:45:26;30.30;;;19.87;;
62798;SDS011;48842;51.046;13.796;2022-11-15T10:47:53;26.57;;;19.73;;
62798;SDS011;48842;51.046;13.796;2022-11-15T10:50:39;26.83;;;19.70;;
62798;SDS011;48842;51.046;13.796;2022-11-15T10:53:15;27.50;;;20.03;;
62798;SDS011;48842;51.046;13.796;2022-11-15T10:55:52;25.90;;;19.80;;
62798;SDS011;48842;51.046;13.796;2022-11-15T11:00:52;27.63;;;19.60;;
62798;SDS011;48842;51.046;13.796;2022-11-15T11:03:27;27.60;;;19.30;;
62798;SDS011;48842;51.046;13.796;2022-11-15T11:08:37;26.57;;;19.67;;
62798;SDS011;48842;51.046;13.796;2022-11-15T11:11:03;27.07;;;20.50;;
62798;SDS011;48842;51.046;13.796;2022-11-15T11:13:30;26.67;;;20.10;;
62798;SDS011;48842;51.046;13.796;2022-11-15T11:21:51;25.67;;;18.93;;
62798;SDS011;48842;51.046;13.796;2022-11-15T11:27:26;25.03;;;18.83;;
62798;SDS011;48842;51.046;13.796;2022-11-15T11:30:03;28.17;;;19.90;;
62798;SDS011;48842;51.046;13.796;2022-11-15T11:32:46;24.57;;;18.23;;
62798;SDS011;48842;51.046;13.796;2022-11-15T11:35:35;29.33;;;20.33;;
62798;SDS011;48842;51.046;13.796;2022-11-15T11:38:19;23.37;;;17.10;;
62798;SDS011;48842;51.046;13.796;2022-11-15T11:43:36;24.23;;;18.70;;
62798;SDS011;48842;51.046;13.796;2022-11-15T11:46:14;25.80;;;18.60;;
62798;SDS011;48842;51.046;13.796;2022-11-15T11:48:46;24.07;;;18.03;;
62798;SDS011;48842;51.046;13.796;2022-11-15T11:51:18;26.67;;;19.27;;
62798;SDS011;48842;51.046;13.796;2022-11-15T11:53:56;27.87;;;18.30;;
62798;SDS011;48842;51.046;13.796;2022-11-15T11:56:29;26.30;;;17.93;;
62798;SDS011;48842;51.046;13.796;2022-11-15T11:59:17;24.80;;;18.43;;
62798;SDS011;48842;51.046;13.796;2022-11-15T12:01:48;26.73;;;19.60;;
62798;SDS011;48842;51.046;13.796;2022-11-15T12:04:21;27.80;;;20.37;;
62798;SDS011;48842;51.046;13.796;2022-11-15T12:09:41;28.57;;;20.30;;
62798;SDS011;48842;51.046;13.796;2022-11-15T12:12:31;23.77;;;18.37;;
62798;SDS011;48842;51.046;13.796;2022-11-15T12:17:34;26.47;;;19.13;;
62798;SDS011;48842;51.046;13.796;2022-11-15T12:20:04;24.70;;;19.57;;
62798;SDS011;48842;51.046;13.796;2022-11-15T12:22:52;29.70;;;19.50;;
62798;SDS011;48842;51.046;13.796;2022-11-15T12:25:21;28.20;;;19.63;;
62798;SDS011;48842;51.046;13.796;2022-11-15T12:27:58;28.23;;;17.57;;
62798;SDS011;48842;51.046;13.796;2022-11-15T12:33:44;31.50;;;19.60;;
62798;SDS011;48842;51.046;13.796;2022-11-15T12:36:12;29.07;;;19.00;;
62798;SDS011;48842;51.046;13.796;2022-11-15T12:38:59;24.77;;;18.30;;
62798;SDS011;48842;51.046;13.796;2022-11-15T12:41:31;25.90;;;19.00;;
62798;SDS011;48842;51.046;13.796;2022-11-15T12:44:04;24.80;;;19.43;;
62798;SDS011;48842;51.046;13.796;2022-11-15T12:46:58;25.30;;;19.83;;
62798;SDS011;48842;51.046;13.796;2022-11-15T13:02:23;23.97;;;17.73;;
62798;SDS011;48842;51.046;13.796;2022-11-15T13:04:52;27.37;;;20.33;;
62798;SDS011;48842;51.046;13.796;2022-11-15T13:17:37;28.80;;;19.00;;
62798;SDS011;48842;51.046;13.796;2022-11-15T13:22:39;26.87;;;19.47;;
62798;SDS011;48842;51.046;13.796;2022-11-15T13:27:52;26.23;;;18.00;;
62798;SDS011;48842;51.046;13.796;2022-11-15T13:30:23;23.10;;;18.37;;
62798;SDS011;48842;51.046;13.796;2022-11-15T13:32:52;24.30;;;18.80;;
62798;SDS011;48842;51.046;13.796;2022-11-15T13:35:26;23.73;;;17.30;;
62798;SDS011;48842;51.046;13.796;2022-11-15T13:37:53;25.40;;;19.30;;
62798;SDS011;48842;51.046;13.796;2022-11-15T13:42:52;23.30;;;17.87;;
62798;SDS011;48842;51.046;13.796;2022-11-15T13:45:19;25.97;;;19.13;;
62798;SDS011;48842;51.046;13.796;2022-11-15T13:47:50;26.33;;;19.20;;
62798;SDS011;48842;51.046;13.796;2022-11-15T13:50:17;28.23;;;19.53;;
62798;SDS011;48842;51.046;13.796;2022-11-15T13:52:45;25.90;;;18.30;;
62798;SDS011;48842;51.046;13.796;2022-11-15T13:55:14;21.90;;;18.27;;
62798;SDS011;48842;51.046;13.796;2022-11-15T13:57:48;25.00;;;18.63;;
62798;SDS011;48842;51.046;13.796;2022-11-15T14:00:26;23.13;;;18.47;;
62798;SDS011;48842;51.046;13.796;2022-11-15T14:06:06;26.37;;;18.90;;
62798;SDS011;48842;51.046;13.796;2022-11-15T14:08:37;25.97;;;19.60;;
62798;SDS011;48842;51.046;13.796;2022-11-15T14:13:38;26.27;;;19.60;;
62798;SDS011;48842;51.046;13.796;2022-11-15T14:16:20;24.50;;;18.40;;
62798;SDS011;48842;51.046;13.796;2022-11-15T14:18:48;26.17;;;19.67;;
62798;SDS011;48842;51.046;13.796;2022-11-15T14:21:15;25.30;;;19.40;;
62798;SDS011;48842;51.046;13.796;2022-11-15T14:23:42;28.17;;;20.20;;
62798;SDS011;48842;51.046;13.796;2022-11-15T14:26:11;28.03;;;21.40;;
62798;SDS011;48842;51.046;13.796;2022-11-15T14:28:52;25.93;;;19.30;;
62798;SDS011;48842;51.046;13.796;2022-11-15T14:31:17;26.00;;;19.30;;
62798;SDS011;48842;51.046;13.796;2022-11-15T14:33:47;27.40;;;19.67;;
62798;SDS011;48842;51.046;13.796;2022-11-15T14:36:13;27.70;;;19.80;;
62798;SDS011;48842;51.046;13.796;2022-11-15T14:38:40;23.50;;;19.70;;
62798;SDS011;48842;51.046;13.796;2022-11-15T14:41:17;28.03;;;20.23;;
62798;SDS011;48842;51.046;13.796;2022-11-15T14:43:47;28.03;;;21.67;;
62798;SDS011;48842;51.046;13.796;2022-11-15T14:46:12;27.50;;;18.73;;
62798;SDS011;48842;51.046;13.796;2022-11-15T14:48:37;25.33;;;19.20;;
62798;SDS011;48842;51.046;13.796;2022-11-15T14:51:03;25.80;;;18.83;;
62798;SDS011;48842;51.046;13.796;2022-11-15T14:53:28;26.77;;;19.50;;
62798;SDS011;48842;51.046;13.796;2022-11-15T14:55:53;30.10;;;19.37;;
62798;SDS011;48842;51.046;13.796;2022-11-15T14:58:18;27.40;;;20.47;;
62798;SDS011;48842;51.046;13.796;2022-11-15T15:00:44;27.10;;;19.57;;
62798;SDS011;48842;51.046;13.796;2022-11-15T15:03:09;30.17;;;18.87;;
62798;SDS011;48842;51.046;13.796;2022-11-15T15:05:36;27.70;;;19.50;;
62798;SDS011;48842;51.046;13.796;2022-11-15T15:08:03;29.53;;;20.60;;
62798;SDS011;48842;51.046;13.796;2022-11-15T15:10:34;26.20;;;20.10;;
62798;SDS011;48842;51.046;13.796;2022-11-15T15:13:02;29.00;;;19.27;;
62798;SDS011;48842;51.046;13.796;2022-11-15T15:15:32;28.50;;;18.70;;
62798;SDS011;48842;51.046;13.796;2022-11-15T15:18:00;27.40;;;20.33;;
62798;SDS011;48842;51.046;13.796;2022-11-15T15:20:25;30.77;;;21.10;;
62798;SDS011;48842;51.046;13.796;2022-11-15T15:22:50;27.57;;;19.60;;
62798;SDS011;48842;51.046;13.796;2022-11-15T15:27:44;25.70;;;19.17;;
62798;SDS011;48842;51.046;13.796;2022-11-15T15:30:09;33.93;;;20.40;;
62798;SDS011;48842;51.046;13.796;2022-11-15T15:32:35;30.73;;;21.70;;
62798;SDS011;48842;51.046;13.796;2022-11-15T15:35:00;28.90;;;21.23;;
62798;SDS011;48842;51.046;13.796;2022-11-15T15:37:26;30.27;;;21.20;;
62798;SDS011;48842;51.046;13.796;2022-11-15T15:39:51;32.67;;;22.40;;
62798;SDS011;48842;51.046;13.796;2022-11-15T15:42:19;28.93;;;20.17;;
62798;SDS011;48842;51.046;13.796;2022-11-15T15:44:48;28.40;;;21.87;;
62798;SDS011;48842;51.046;13.796;2022-11-15T15:47:15;30.63;;;21.40;;
62798;SDS011;48842;51.046;13.796;2022-11-15T15:49:43;27.90;;;19.70;;
62798;SDS011;48842;51.046;13.796;2022-11-15T15:52:09;29.60;;;21.80;;
62798;SDS011;48842;51.046;13.796;2022-11-15T15:54:34;34.83;;;23.60;;
62798;SDS011;48842;51.046;13.796;2022-11-15T15:56:59;30.67;;;19.03;;